createdAt,value
2022-09-27T00:01:03.607Z,2.33
2022-09-27T00:03:30.995Z,2.70
2022-09-27T00:06:15.184Z,2.22
2022-09-27T00:08:42.211Z,2.55
2022-09-27T00:11:15.170Z,2.90
2022-09-27T00:13:42.101Z,2.70
2022-09-27T00:16:10.089Z,2.83
2022-09-27T00:18:37.071Z,2.80
2022-09-27T00:21:12.702Z,2.60
2022-09-27T00:23:39.987Z,2.58
2022-09-27T00:26:08.488Z,2.80
2022-09-27T00:28:35.401Z,3.00
2022-09-27T00:31:02.486Z,2.63
2022-09-27T00:33:29.135Z,2.72
2022-09-27T00:35:56.046Z,2.78
2022-09-27T00:38:22.526Z,3.25
2022-09-27T00:40:49.895Z,3.17
2022-09-27T00:43:22.823Z,2.45
2022-09-27T00:46:01.298Z,2.70
2022-09-27T00:48:31.428Z,2.95
2022-09-27T00:51:01.825Z,2.75
2022-09-27T00:53:33.600Z,2.58
2022-09-27T00:56:05.572Z,3.13
2022-09-27T00:58:44.915Z,2.58
2022-09-27T01:01:14.075Z,2.72
2022-09-27T01:04:09.218Z,2.83
2022-09-27T01:06:35.908Z,2.78
2022-09-27T01:09:02.947Z,2.85
2022-09-27T01:11:48.418Z,2.90
2022-09-27T01:14:45.452Z,2.60
2022-09-27T01:17:56.439Z,3.00
2022-09-27T01:20:33.032Z,2.92
2022-09-27T01:23:17.959Z,3.30
2022-09-27T01:26:09.540Z,2.80
2022-09-27T01:28:55.138Z,3.10
2022-09-27T01:31:32.823Z,3.50
2022-09-27T01:34:25.273Z,2.92
2022-09-27T01:37:05.162Z,3.22
2022-09-27T01:39:50.422Z,3.65
2022-09-27T01:42:50.063Z,3.17
2022-09-27T01:45:22.339Z,2.78
2022-09-27T01:47:54.987Z,2.88
2022-09-27T01:50:29.469Z,3.08
2022-09-27T01:53:02.659Z,2.90
2022-09-27T01:55:34.468Z,3.60
2022-09-27T01:58:24.955Z,2.92
2022-09-27T02:00:54.468Z,3.28
2022-09-27T02:03:25.638Z,2.58
2022-09-27T02:05:57.435Z,3.28
2022-09-27T02:08:36.482Z,3.20
2022-09-27T02:11:09.395Z,3.38
2022-09-27T02:14:17.404Z,3.08
2022-09-27T02:17:00.542Z,2.97
2022-09-27T02:19:53.491Z,2.92
2022-09-27T02:22:30.238Z,3.38
2022-09-27T02:25:21.219Z,3.78
2022-09-27T02:28:10.194Z,3.72
2022-09-27T02:30:37.289Z,3.28
2022-09-27T02:33:04.323Z,3.58
2022-09-27T02:35:36.325Z,3.08
2022-09-27T02:38:06.446Z,3.72
2022-09-27T02:40:35.902Z,3.55
2022-09-27T02:43:06.044Z,3.47
2022-09-27T02:46:14.390Z,3.50
2022-09-27T02:48:57.860Z,2.92
2022-09-27T02:51:32.938Z,3.47
2022-09-27T02:54:22.613Z,3.28
2022-09-27T02:57:13.394Z,3.58
2022-09-27T03:00:05.908Z,3.25
2022-09-27T03:03:09.976Z,3.60
2022-09-27T03:06:04.456Z,3.20
2022-09-27T03:08:31.164Z,3.58
2022-09-27T03:10:58.087Z,3.45
2022-09-27T03:13:24.719Z,3.85
2022-09-27T03:15:51.632Z,3.17
2022-09-27T03:18:18.151Z,3.13
2022-09-27T03:20:44.735Z,2.78
2022-09-27T03:23:11.679Z,3.47
2022-09-27T03:25:38.811Z,3.17
2022-09-27T03:28:06.883Z,3.58
2022-09-27T03:30:33.456Z,3.33
2022-09-27T03:33:00.439Z,3.17
2022-09-27T03:35:27.346Z,3.75
2022-09-27T03:37:53.832Z,3.53
2022-09-27T03:40:20.796Z,3.53
2022-09-27T03:42:49.989Z,3.10
2022-09-27T03:45:17.719Z,3.10
2022-09-27T03:47:44.215Z,3.60
2022-09-27T03:50:12.472Z,3.17
2022-09-27T03:52:40.096Z,3.05
2022-09-27T03:55:07.432Z,3.28
2022-09-27T03:57:34.394Z,3.20
2022-09-27T04:00:01.104Z,3.50
2022-09-27T04:02:28.795Z,3.80
2022-09-27T04:04:55.379Z,4.10
2022-09-27T04:07:23.921Z,3.20
2022-09-27T04:09:50.411Z,3.22
2022-09-27T04:12:17.326Z,3.72
2022-09-27T04:14:43.863Z,3.67
2022-09-27T04:17:10.835Z,3.60
2022-09-27T04:19:38.120Z,3.80
2022-09-27T04:22:04.621Z,3.65
2022-09-27T04:24:32.118Z,3.83
2022-09-27T04:26:59.033Z,3.97
2022-09-27T04:29:25.740Z,3.85
2022-09-27T04:31:52.640Z,4.03
2022-09-27T04:34:43.204Z,3.13
2022-09-27T04:37:12.203Z,3.78
2022-09-27T04:39:40.024Z,3.88
2022-09-27T04:42:06.530Z,3.75
2022-09-27T04:44:33.033Z,4.15
2022-09-27T04:46:59.557Z,3.33
2022-09-27T04:49:26.535Z,4.25
2022-09-27T04:51:53.422Z,4.03
2022-09-27T04:54:20.132Z,3.90
2022-09-27T04:56:49.126Z,4.07
2022-09-27T04:59:15.942Z,3.45
2022-09-27T05:01:43.078Z,4.72
2022-09-27T05:04:09.663Z,4.07
2022-09-27T05:06:36.568Z,3.78
2022-09-27T05:09:03.751Z,4.18
2022-09-27T05:11:30.279Z,4.82
2022-09-27T05:13:56.774Z,4.35
2022-09-27T05:16:24.516Z,4.82
2022-09-27T05:18:51.048Z,5.07
2022-09-27T05:21:17.559Z,5.57
2022-09-27T05:23:46.023Z,6.10
2022-09-27T05:26:14.475Z,6.15
2022-09-27T05:28:44.287Z,5.95
2022-09-27T05:31:13.168Z,6.40
2022-09-27T05:33:40.909Z,5.78
2022-09-27T05:36:09.095Z,6.63
2022-09-27T05:38:36.884Z,6.63
2022-09-27T05:41:04.423Z,6.90
2022-09-27T05:43:31.622Z,6.90
2022-09-27T05:45:59.157Z,6.90
2022-09-27T05:48:26.549Z,6.38
2022-09-27T05:50:53.467Z,6.10
2022-09-27T05:53:20.432Z,6.32
2022-09-27T05:55:47.917Z,6.55
2022-09-27T05:58:16.054Z,7.22
2022-09-27T06:00:43.842Z,6.80
2022-09-27T06:03:12.932Z,6.50
2022-09-27T06:05:40.215Z,5.95
2022-09-27T06:08:10.177Z,7.82
2022-09-27T06:10:38.329Z,7.38
2022-09-27T06:13:11.387Z,7.00
2022-09-27T06:15:40.211Z,7.22
2022-09-27T06:18:12.404Z,6.28
2022-09-27T06:20:40.076Z,7.03
2022-09-27T06:23:09.278Z,6.85
2022-09-27T06:25:37.002Z,5.75
2022-09-27T06:28:04.334Z,6.30
2022-09-27T06:30:31.622Z,6.40
2022-09-27T06:33:02.609Z,6.53
2022-09-27T06:35:29.853Z,6.07
2022-09-27T06:37:56.719Z,6.00
2022-09-27T06:40:27.593Z,5.97
2022-09-27T06:42:54.220Z,5.55
2022-09-27T06:45:21.154Z,5.32
2022-09-27T06:47:47.734Z,5.43
2022-09-27T06:50:14.383Z,5.97
2022-09-27T06:52:48.135Z,5.25
2022-09-27T06:55:15.270Z,5.13
2022-09-27T06:58:00.855Z,4.50
2022-09-27T07:00:28.338Z,4.55
2022-09-27T07:02:58.421Z,4.25
2022-09-27T07:05:25.789Z,3.80
2022-09-27T07:07:56.307Z,3.97
2022-09-27T07:10:23.326Z,3.83
2022-09-27T07:12:50.247Z,4.00
2022-09-27T07:15:16.825Z,3.70
2022-09-27T07:17:43.399Z,3.47
2022-09-27T07:20:10.079Z,3.40
2022-09-27T07:22:42.063Z,3.47
2022-09-27T07:25:09.502Z,3.55
2022-09-27T07:27:38.460Z,2.85
2022-09-27T07:30:07.599Z,2.70
2022-09-27T07:32:36.710Z,3.00
2022-09-27T07:35:04.861Z,3.15
2022-09-27T07:37:36.525Z,2.80
2022-09-27T07:40:07.211Z,3.00
2022-09-27T07:42:34.685Z,2.78
2022-09-27T07:45:01.196Z,2.45
2022-09-27T07:47:28.180Z,2.50
2022-09-27T07:49:56.006Z,2.25
2022-09-27T07:52:23.292Z,2.22
2022-09-27T07:54:49.810Z,1.98
2022-09-27T07:57:16.806Z,2.10
2022-09-27T07:59:43.587Z,1.70
2022-09-27T08:02:15.647Z,2.00
2022-09-27T08:04:47.011Z,2.00
2022-09-27T08:07:14.567Z,2.00
2022-09-27T08:09:41.364Z,2.30
2022-09-27T08:12:08.269Z,2.30
2022-09-27T08:14:40.940Z,2.25
2022-09-27T08:17:13.221Z,2.47
2022-09-27T08:19:41.018Z,2.50
2022-09-27T08:22:08.275Z,2.55
2022-09-27T08:24:35.817Z,2.38
2022-09-27T08:27:06.083Z,2.72
2022-09-27T08:29:36.447Z,2.90
2022-09-27T08:32:03.844Z,2.10
2022-09-27T08:34:30.399Z,2.60
2022-09-27T08:36:57.206Z,2.35
2022-09-27T08:39:24.495Z,2.58
2022-09-27T08:41:55.243Z,2.40
2022-09-27T08:45:03.304Z,2.45
2022-09-27T08:47:39.311Z,2.58
2022-09-27T08:50:22.909Z,2.10
2022-09-27T08:52:58.814Z,2.05
2022-09-27T08:55:37.257Z,2.35
2022-09-27T08:58:15.728Z,1.90
2022-09-27T09:00:42.704Z,2.08
2022-09-27T09:03:18.459Z,1.92
2022-09-27T09:05:55.847Z,1.73
2022-09-27T09:08:44.380Z,1.60
2022-09-27T09:11:43.864Z,1.65
2022-09-27T09:14:19.784Z,1.52
2022-09-27T09:17:02.931Z,1.10
2022-09-27T09:19:37.187Z,1.20
2022-09-27T09:22:16.190Z,1.10
2022-09-27T09:25:08.228Z,1.48
2022-09-27T09:28:02.641Z,1.20
2022-09-27T09:30:54.582Z,1.25
2022-09-27T09:33:25.193Z,1.33
2022-09-27T09:36:23.349Z,1.30
2022-09-27T09:38:55.734Z,1.20
2022-09-27T09:41:39.211Z,1.42
2022-09-27T09:44:17.848Z,1.25
2022-09-27T09:46:49.433Z,1.65
2022-09-27T09:49:25.427Z,1.10
2022-09-27T09:51:56.640Z,1.40
2022-09-27T09:54:32.208Z,1.10
2022-09-27T09:57:27.675Z,1.20
2022-09-27T10:00:24.241Z,1.17
2022-09-27T10:02:58.149Z,1.00
2022-09-27T10:05:26.853Z,1.23
2022-09-27T10:07:58.242Z,1.10
2022-09-27T10:10:25.004Z,1.02
2022-09-27T10:12:52.089Z,1.15
2022-09-27T10:15:21.387Z,1.00
2022-09-27T10:17:54.001Z,0.93
2022-09-27T10:20:26.607Z,0.90
2022-09-27T10:22:56.856Z,1.10
2022-09-27T10:25:23.560Z,1.00
2022-09-27T10:27:53.208Z,0.85
2022-09-27T10:30:28.902Z,1.25
2022-09-27T10:32:59.819Z,1.92
2022-09-27T10:35:29.876Z,1.17
2022-09-27T10:38:24.172Z,1.35
2022-09-27T10:40:53.465Z,1.33
2022-09-27T10:43:32.921Z,1.30
2022-09-27T10:46:25.270Z,1.55
2022-09-27T10:49:18.340Z,1.42
2022-09-27T10:51:46.404Z,1.52
2022-09-27T10:54:27.769Z,1.45
2022-09-27T10:57:05.791Z,1.30
2022-09-27T10:59:37.331Z,1.50
2022-09-27T11:02:07.011Z,1.30
2022-09-27T11:04:36.675Z,1.20
2022-09-27T11:07:20.320Z,1.50
2022-09-27T11:10:05.620Z,1.50
2022-09-27T11:12:32.679Z,1.58
2022-09-27T11:15:06.591Z,1.70
2022-09-27T11:18:01.802Z,1.33
2022-09-27T11:20:53.170Z,1.70
2022-09-27T11:23:43.474Z,2.00
2022-09-27T11:26:30.010Z,1.83
2022-09-27T11:29:11.519Z,2.20
2022-09-27T11:31:55.203Z,1.85
2022-09-27T11:34:40.489Z,1.92
2022-09-27T11:37:16.203Z,1.92
2022-09-27T11:39:48.845Z,2.03
2022-09-27T11:42:52.084Z,2.00
2022-09-27T11:48:41.425Z,2.00
2022-09-27T11:51:29.784Z,2.25
2022-09-27T11:54:16.389Z,1.90
2022-09-27T11:57:06.846Z,1.73
2022-09-27T12:00:02.224Z,1.60
2022-09-27T12:02:57.536Z,1.65
2022-09-27T12:05:32.438Z,1.70
2022-09-27T12:08:18.455Z,1.70
2022-09-27T12:10:52.639Z,1.77
2022-09-27T12:13:31.841Z,1.50
2022-09-27T12:16:00.206Z,1.67
2022-09-27T12:18:32.587Z,1.90
2022-09-27T12:21:09.956Z,1.63
2022-09-27T12:23:49.431Z,1.95
2022-09-27T12:26:23.871Z,1.85
2022-09-27T12:29:02.148Z,1.50
2022-09-27T12:31:35.672Z,1.35
2022-09-27T12:34:40.363Z,2.10
2022-09-27T12:37:25.570Z,1.70
2022-09-27T12:40:21.249Z,1.40
2022-09-27T12:42:59.501Z,1.20
2022-09-27T12:45:41.077Z,1.45
2022-09-27T12:48:26.058Z,1.52
2022-09-27T12:51:07.370Z,1.88
2022-09-27T12:53:42.944Z,1.80
2022-09-27T12:56:41.048Z,1.75
2022-09-27T12:59:16.761Z,1.58
2022-09-27T13:02:28.015Z,1.40
2022-09-27T13:05:14.212Z,1.17
2022-09-27T13:07:48.476Z,1.25
2022-09-27T13:10:27.463Z,1.08
2022-09-27T13:12:55.466Z,1.60
2022-09-27T13:15:35.315Z,1.10
2022-09-27T13:18:06.670Z,1.33
2022-09-27T13:20:40.456Z,1.45
2022-09-27T13:23:16.656Z,1.40
2022-09-27T13:26:08.223Z,1.48
2022-09-27T13:28:58.851Z,1.30
2022-09-27T13:31:53.425Z,1.25
2022-09-27T13:34:38.717Z,1.25
2022-09-27T13:37:48.421Z,1.83
2022-09-27T13:40:24.963Z,1.00
2022-09-27T13:43:13.490Z,1.10
2022-09-27T13:45:57.222Z,1.10
2022-09-27T13:48:48.123Z,1.20
2022-09-27T13:51:19.797Z,1.35
2022-09-27T13:54:00.787Z,1.45
2022-09-27T13:56:36.561Z,1.05
2022-09-27T13:59:08.414Z,1.20
2022-09-27T14:02:14.049Z,1.42
2022-09-27T14:04:51.330Z,1.00
2022-09-27T14:07:36.604Z,1.20
2022-09-27T14:10:05.423Z,1.23
2022-09-27T14:12:36.507Z,1.50
2022-09-27T14:15:04.808Z,1.42
2022-09-27T14:20:33.448Z,1.35
2022-09-27T14:23:01.874Z,1.23
2022-09-27T14:25:28.729Z,1.60
2022-09-27T14:27:55.908Z,1.40
2022-09-27T14:30:25.477Z,1.70
2022-09-27T14:32:55.676Z,1.50
2022-09-27T14:35:46.523Z,3.05
2022-09-27T14:38:41.767Z,1.33
2022-09-27T14:41:08.490Z,1.45
2022-09-27T14:43:36.796Z,1.40
2022-09-27T14:46:09.222Z,1.50
2022-09-27T14:48:40.718Z,2.95
2022-09-27T14:51:14.088Z,2.50
2022-09-27T14:53:47.236Z,1.73
2022-09-27T14:56:22.645Z,1.17
2022-09-27T14:58:59.271Z,1.30
2022-09-27T15:01:25.861Z,1.20
2022-09-27T15:03:54.019Z,1.30
2022-09-27T15:06:21.248Z,1.05
2022-09-27T15:08:49.560Z,1.85
2022-09-27T15:11:19.111Z,1.42
2022-09-27T15:13:48.318Z,1.45
2022-09-27T15:16:20.525Z,1.38
2022-09-27T15:18:50.774Z,1.10
2022-09-27T15:21:37.520Z,1.50
2022-09-27T15:24:05.094Z,1.10
2022-09-27T15:26:40.023Z,1.83
2022-09-27T15:29:07.290Z,1.00
2022-09-27T15:31:37.563Z,1.90
2022-09-27T15:34:07.463Z,0.90
2022-09-27T15:36:55.671Z,1.13
2022-09-27T15:39:35.586Z,1.13
2022-09-27T15:42:09.204Z,0.80
2022-09-27T15:44:58.429Z,0.90
2022-09-27T15:47:43.630Z,1.05
2022-09-27T15:50:16.577Z,0.90
2022-09-27T15:52:50.679Z,1.05
2022-09-27T15:55:25.194Z,1.00
2022-09-27T15:57:58.484Z,1.20
2022-09-27T16:00:26.486Z,1.23
2022-09-27T16:02:54.222Z,1.10
2022-09-27T16:05:23.839Z,1.17
2022-09-27T16:07:51.013Z,1.60
2022-09-27T16:10:23.883Z,1.08
2022-09-27T16:12:52.382Z,1.25
2022-09-27T16:15:19.036Z,0.88
2022-09-27T16:17:46.036Z,1.23
2022-09-27T16:20:23.054Z,1.10
2022-09-27T16:22:51.067Z,1.20
2022-09-27T16:25:18.876Z,1.45
2022-09-27T16:27:46.369Z,1.02
2022-09-27T16:30:14.043Z,1.80
2022-09-27T16:32:45.480Z,1.10
2022-09-27T16:35:15.192Z,1.50
2022-09-27T16:37:42.330Z,1.75
2022-09-27T16:40:10.046Z,1.83
2022-09-27T16:42:37.827Z,1.80
2022-09-27T16:45:11.024Z,1.88
2022-09-27T16:47:40.060Z,2.20
2022-09-27T16:50:25.587Z,1.90
2022-09-27T16:52:52.763Z,3.13
2022-09-27T16:55:21.003Z,2.67
2022-09-27T16:57:48.986Z,1.92
2022-09-27T17:00:16.425Z,1.73
2022-09-27T17:02:48.475Z,2.00
2022-09-27T17:05:16.051Z,5.43
2022-09-27T17:07:43.107Z,3.88
2022-09-27T17:10:10.056Z,3.38
2022-09-27T17:12:37.027Z,3.05
2022-09-27T17:15:03.756Z,2.72
2022-09-27T17:17:30.759Z,2.40
2022-09-27T17:19:57.368Z,2.47
2022-09-27T17:22:23.971Z,2.47
2022-09-27T17:24:51.129Z,2.10
2022-09-27T17:27:17.964Z,4.70
2022-09-27T17:29:44.572Z,2.20
2022-09-27T17:32:13.515Z,1.65
2022-09-27T17:34:43.846Z,2.38
2022-09-27T17:37:11.645Z,2.28
2022-09-27T17:39:38.241Z,1.77
2022-09-27T17:42:05.689Z,1.40
2022-09-27T17:44:32.365Z,1.50
2022-09-27T17:47:18.064Z,6.18
2022-09-27T17:50:04.958Z,5.47
2022-09-27T17:52:33.806Z,19.70
2022-09-27T17:55:00.718Z,20.98
2022-09-27T17:57:27.995Z,5.63
2022-09-27T17:59:55.164Z,3.08
2022-09-27T18:02:21.825Z,2.67
2022-09-27T18:04:48.831Z,1.80
2022-09-27T18:07:16.035Z,1.40
2022-09-27T18:09:42.578Z,1.27
2022-09-27T18:12:09.508Z,1.33
2022-09-27T18:14:36.911Z,1.40
2022-09-27T18:17:04.128Z,1.92
2022-09-27T18:19:32.060Z,1.70
2022-09-27T18:22:00.587Z,1.40
2022-09-27T18:24:27.486Z,1.42
2022-09-27T18:26:56.077Z,1.42
2022-09-27T18:29:24.303Z,1.15
2022-09-27T18:31:50.920Z,1.35
2022-09-27T18:34:18.884Z,1.42
2022-09-27T18:36:46.516Z,1.10
2022-09-27T18:42:05.258Z,1.40
2022-09-27T18:44:33.300Z,1.25
2022-09-27T18:47:00.299Z,1.40
2022-09-27T18:49:33.034Z,1.40
2022-09-27T18:52:01.284Z,1.60
2022-09-27T18:54:29.439Z,1.30
2022-09-27T18:56:56.387Z,1.27
2022-09-27T18:59:23.817Z,1.38
2022-09-27T19:01:51.125Z,1.70
2022-09-27T19:04:24.054Z,1.38
2022-09-27T19:06:52.661Z,1.25
2022-09-27T19:09:19.674Z,2.67
2022-09-27T19:11:46.294Z,2.25
2022-09-27T19:14:19.222Z,1.70
2022-09-27T19:16:47.374Z,1.55
2022-09-27T19:19:15.113Z,1.50
2022-09-27T19:21:42.111Z,1.65
2022-09-27T19:24:08.660Z,1.67
2022-09-27T19:26:35.642Z,1.52
2022-09-27T19:29:02.172Z,1.40
2022-09-27T19:31:29.977Z,1.70
2022-09-27T19:34:00.199Z,1.70
2022-09-27T19:36:28.274Z,2.00
2022-09-27T19:38:59.112Z,2.00
2022-09-27T19:41:25.881Z,2.10
2022-09-27T19:43:53.390Z,2.28
2022-09-27T19:46:21.276Z,2.60
2022-09-27T19:48:49.187Z,2.25
2022-09-27T19:51:18.286Z,3.03
2022-09-27T19:53:45.243Z,2.67
2022-09-27T19:56:12.864Z,2.47
2022-09-27T19:58:40.756Z,2.78
2022-09-27T20:01:36.098Z,3.47
2022-09-27T20:04:06.840Z,4.65
2022-09-27T20:06:34.446Z,2.95
2022-09-27T20:09:03.391Z,3.00
2022-09-27T20:11:31.168Z,4.55
2022-09-27T20:13:59.631Z,5.15
2022-09-27T20:16:26.782Z,4.82
2022-09-27T20:18:56.087Z,3.53
2022-09-27T20:21:25.016Z,3.53
2022-09-27T20:23:53.443Z,3.25
2022-09-27T20:26:22.392Z,3.85
2022-09-27T20:28:51.775Z,3.53
2022-09-27T20:31:21.620Z,3.10
2022-09-27T20:33:50.713Z,3.00
2022-09-27T20:36:26.439Z,3.25
2022-09-27T20:38:59.583Z,3.35
2022-09-27T20:41:31.426Z,3.85
2022-09-27T20:44:00.410Z,3.40
2022-09-27T20:46:27.570Z,2.92
2022-09-27T20:48:59.073Z,3.65
2022-09-27T20:51:27.636Z,3.63
2022-09-27T20:53:54.973Z,2.95
2022-09-27T20:56:24.486Z,3.13
2022-09-27T20:58:53.410Z,3.17
2022-09-27T21:01:22.116Z,2.50
2022-09-27T21:03:57.086Z,3.17
2022-09-27T21:06:23.911Z,3.05
2022-09-27T21:08:51.731Z,3.25
2022-09-27T21:11:19.452Z,2.70
2022-09-27T21:13:47.368Z,2.90
2022-09-27T21:16:17.516Z,2.90
2022-09-27T21:18:45.095Z,2.50
2022-09-27T21:21:14.658Z,3.67
2022-09-27T21:23:44.960Z,3.25
2022-09-27T21:26:17.955Z,2.80
2022-09-27T21:28:47.277Z,2.75
2022-09-27T21:31:21.649Z,3.22
2022-09-27T21:33:53.946Z,3.13
2022-09-27T21:36:23.454Z,3.20
2022-09-27T21:38:50.121Z,3.50
2022-09-27T21:41:17.847Z,3.55
2022-09-27T21:43:46.464Z,2.80
2022-09-27T21:46:19.348Z,2.95
2022-09-27T21:48:48.323Z,3.13
2022-09-27T21:51:16.218Z,3.17
2022-09-27T21:53:48.507Z,3.20
2022-09-27T21:56:14.994Z,3.45
2022-09-27T21:58:42.502Z,3.35
2022-09-27T22:01:11.130Z,3.80
2022-09-27T22:03:39.572Z,3.17
2022-09-27T22:06:09.842Z,3.50
2022-09-27T22:08:36.597Z,3.45
2022-09-27T22:11:04.184Z,3.47
2022-09-27T22:13:31.765Z,3.28
2022-09-27T22:16:06.635Z,3.65
2022-09-27T22:18:41.531Z,3.28
2022-09-27T22:21:13.584Z,3.55
2022-09-27T22:23:40.666Z,3.85
2022-09-27T22:26:14.581Z,3.72
2022-09-27T22:28:42.143Z,3.60
2022-09-27T22:31:09.448Z,3.40
2022-09-27T22:33:36.395Z,4.05
2022-09-27T22:36:03.721Z,4.00
2022-09-27T22:38:31.142Z,4.18
2022-09-27T22:40:59.546Z,4.07
2022-09-27T22:43:26.970Z,3.92
2022-09-27T22:45:53.881Z,4.15
2022-09-27T22:48:20.374Z,4.40
2022-09-27T22:50:46.870Z,3.53
2022-09-27T22:53:14.315Z,3.58
2022-09-27T22:55:41.057Z,4.10
2022-09-27T22:58:07.567Z,4.82
2022-09-27T23:00:34.681Z,4.18
2022-09-27T23:03:01.192Z,4.38
2022-09-27T23:05:28.139Z,4.63
2022-09-27T23:07:55.040Z,4.70
2022-09-27T23:10:23.844Z,4.40
2022-09-27T23:12:55.063Z,5.00
2022-09-27T23:15:21.986Z,4.43
2022-09-27T23:17:52.114Z,5.18
2022-09-27T23:20:19.071Z,4.65
2022-09-27T23:22:46.121Z,4.68
2022-09-27T23:25:13.594Z,4.65
2022-09-27T23:27:44.872Z,5.05
2022-09-27T23:30:13.797Z,3.85
2022-09-27T23:32:44.575Z,4.20
2022-09-27T23:35:14.702Z,5.00
2022-09-27T23:37:42.038Z,4.72
2022-09-27T23:40:09.611Z,4.75
2022-09-27T23:42:36.693Z,4.20
2022-09-27T23:45:03.360Z,4.80
2022-09-27T23:47:29.951Z,4.50
2022-09-27T23:49:58.526Z,4.75
2022-09-27T23:52:26.324Z,4.80
2022-09-27T23:54:53.680Z,4.95
2022-09-27T23:57:20.171Z,5.38
2022-09-27T23:59:47.114Z,4.00
